sensor_id;sensor_type;location;lat;lon;timestamp;temperature;humidity
40808;DHT22;26523;52.504;13.498;2023-03-31T00:01:27;10.00;99.90
40808;DHT22;26523;52.504;13.498;2023-03-31T00:03:54;10.10;99.90
40808;DHT22;26523;52.504;13.498;2023-03-31T00:06:28;10.10;99.90
40808;DHT22;26523;52.504;13.498;2023-03-31T00:08:54;10.10;99.90
40808;DHT22;26523;52.504;13.498;2023-03-31T00:11:20;10.10;99.90
40808;DHT22;26523;52.504;13.498;2023-03-31T00:13:46;10.10;99.90
40808;DHT22;26523;52.504;13.498;2023-03-31T00:16:12;10.10;99.90
40808;DHT22;26523;52.504;13.498;2023-03-31T00:18:38;10.10;99.90
40808;DHT22;26523;52.504;13.498;2023-03-31T00:21:22;10.10;99.90
40808;DHT22;26523;52.504;13.498;2023-03-31T00:23:57;10.20;99.90
40808;DHT22;26523;52.504;13.498;2023-03-31T00:26:23;10.10;99.90
40808;DHT22;26523;52.504;13.498;2023-03-31T00:28:51;10.20;99.90
40808;DHT22;26523;52.504;13.498;2023-03-31T00:31:17;10.10;99.90
40808;DHT22;26523;52.504;13.498;2023-03-31T00:33:42;10.10;99.90
40808;DHT22;26523;52.504;13.498;2023-03-31T00:36:08;10.10;99.90
40808;DHT22;26523;52.504;13.498;2023-03-31T00:38:34;10.10;99.90
40808;DHT22;26523;52.504;13.498;2023-03-31T00:41:00;10.10;99.90
40808;DHT22;26523;52.504;13.498;2023-03-31T00:43:35;10.10;99.90
40808;DHT22;26523;52.504;13.498;2023-03-31T00:46:23;10.10;99.90
40808;DHT22;26523;52.504;13.498;2023-03-31T00:48:54;10.10;99.90
40808;DHT22;26523;52.504;13.498;2023-03-31T00:51:25;10.10;99.90
40808;DHT22;26523;52.504;13.498;2023-03-31T00:53:59;10.10;99.90
40808;DHT22;26523;52.504;13.498;2023-03-31T00:56:27;10.10;99.90
40808;DHT22;26523;52.504;13.498;2023-03-31T00:59:00;10.10;99.90
40808;DHT22;26523;52.504;13.498;2023-03-31T01:01:27;10.10;99.90
40808;DHT22;26523;52.504;13.498;2023-03-31T01:03:55;10.00;99.90
40808;DHT22;26523;52.504;13.498;2023-03-31T01:06:22;9.90;99.90
40808;DHT22;26523;52.504;13.498;2023-03-31T01:08:50;9.80;99.90
40808;DHT22;26523;52.504;13.498;2023-03-31T01:11:19;9.80;99.90
40808;DHT22;26523;52.504;13.498;2023-03-31T01:13:47;9.70;99.90
40808;DHT22;26523;52.504;13.498;2023-03-31T01:16:16;9.70;99.90
40808;DHT22;26523;52.504;13.498;2023-03-31T01:18:42;9.70;99.90
40808;DHT22;26523;52.504;13.498;2023-03-31T01:21:39;9.60;99.90
40808;DHT22;26523;52.504;13.498;2023-03-31T01:27:30;9.50;99.90
40808;DHT22;26523;52.504;13.498;2023-03-31T01:48:49;9.10;99.90
40808;DHT22;26523;52.504;13.498;2023-03-31T01:51:26;9.10;99.90
40808;DHT22;26523;52.504;13.498;2023-03-31T01:54:13;9.10;99.90
40808;DHT22;26523;52.504;13.498;2023-03-31T01:56:59;9.10;99.90
40808;DHT22;26523;52.504;13.498;2023-03-31T01:59:33;9.20;99.90
40808;DHT22;26523;52.504;13.498;2023-03-31T02:02:07;9.20;99.90
40808;DHT22;26523;52.504;13.498;2023-03-31T02:04:41;9.30;99.90
40808;DHT22;26523;52.504;13.498;2023-03-31T02:07:17;9.20;99.90
40808;DHT22;26523;52.504;13.498;2023-03-31T02:09:48;9.30;99.90
40808;DHT22;26523;52.504;13.498;2023-03-31T02:12:15;9.40;99.90
40808;DHT22;26523;52.504;13.498;2023-03-31T02:14:44;9.40;99.90
40808;DHT22;26523;52.504;13.498;2023-03-31T02:17:15;9.40;99.90
40808;DHT22;26523;52.504;13.498;2023-03-31T02:19:45;9.50;99.90
40808;DHT22;26523;52.504;13.498;2023-03-31T02:22:15;9.40;99.90
40808;DHT22;26523;52.504;13.498;2023-03-31T02:24:45;9.50;99.90
40808;DHT22;26523;52.504;13.498;2023-03-31T02:27:17;9.50;99.90
40808;DHT22;26523;52.504;13.498;2023-03-31T02:29:44;9.50;99.90
40808;DHT22;26523;52.504;13.498;2023-03-31T02:34:39;9.50;99.90
40808;DHT22;26523;52.504;13.498;2023-03-31T02:37:05;9.50;99.90
40808;DHT22;26523;52.504;13.498;2023-03-31T02:39:34;9.50;99.90
40808;DHT22;26523;52.504;13.498;2023-03-31T02:42:02;9.50;99.90
40808;DHT22;26523;52.504;13.498;2023-03-31T02:44:33;9.60;99.90
40808;DHT22;26523;52.504;13.498;2023-03-31T02:46:59;9.60;99.90
40808;DHT22;26523;52.504;13.498;2023-03-31T02:49:25;9.60;99.90
40808;DHT22;26523;52.504;13.498;2023-03-31T03:00:48;9.60;99.90
40808;DHT22;26523;52.504;13.498;2023-03-31T03:06:49;9.60;99.90
40808;DHT22;26523;52.504;13.498;2023-03-31T03:20:06;9.60;99.90
40808;DHT22;26523;52.504;13.498;2023-03-31T03:22:34;9.60;99.90
40808;DHT22;26523;52.504;13.498;2023-03-31T03:25:00;9.70;99.90
40808;DHT22;26523;52.504;13.498;2023-03-31T03:27:26;9.70;99.90
40808;DHT22;26523;52.504;13.498;2023-03-31T03:29:53;9.70;99.90
40808;DHT22;26523;52.504;13.498;2023-03-31T03:32:18;9.70;99.90
40808;DHT22;26523;52.504;13.498;2023-03-31T03:34:44;9.70;99.90
40808;DHT22;26523;52.504;13.498;2023-03-31T03:37:10;9.80;99.90
40808;DHT22;26523;52.504;13.498;2023-03-31T03:39:36;9.70;99.90
40808;DHT22;26523;52.504;13.498;2023-03-31T03:42:02;9.70;99.90
40808;DHT22;26523;52.504;13.498;2023-03-31T03:44:28;9.80;99.90
40808;DHT22;26523;52.504;13.498;2023-03-31T03:46:53;9.80;99.90
40808;DHT22;26523;52.504;13.498;2023-03-31T03:49:19;9.80;99.90
40808;DHT22;26523;52.504;13.498;2023-03-31T03:51:45;9.80;99.90
40808;DHT22;26523;52.504;13.498;2023-03-31T03:54:11;9.80;99.90
40808;DHT22;26523;52.504;13.498;2023-03-31T03:56:37;9.80;99.90
40808;DHT22;26523;52.504;13.498;2023-03-31T03:59:02;9.80;99.90
40808;DHT22;26523;52.504;13.498;2023-03-31T04:01:28;9.80;99.90
40808;DHT22;26523;52.504;13.498;2023-03-31T04:03:53;9.90;99.90
40808;DHT22;26523;52.504;13.498;2023-03-31T04:06:19;9.90;99.90
40808;DHT22;26523;52.504;13.498;2023-03-31T04:08:45;9.90;99.90
40808;DHT22;26523;52.504;13.498;2023-03-31T04:11:14;9.80;99.90
40808;DHT22;26523;52.504;13.498;2023-03-31T04:13:42;9.90;99.90
40808;DHT22;26523;52.504;13.498;2023-03-31T04:16:08;9.90;99.90
40808;DHT22;26523;52.504;13.498;2023-03-31T04:18:34;9.90;99.90
40808;DHT22;26523;52.504;13.498;2023-03-31T04:21:02;9.90;99.90
40808;DHT22;26523;52.504;13.498;2023-03-31T04:23:35;9.90;99.90
40808;DHT22;26523;52.504;13.498;2023-03-31T04:26:12;9.90;99.90
40808;DHT22;26523;52.504;13.498;2023-03-31T04:28:38;9.90;99.90
40808;DHT22;26523;52.504;13.498;2023-03-31T04:31:10;9.90;99.90
40808;DHT22;26523;52.504;13.498;2023-03-31T04:33:41;9.90;99.90
40808;DHT22;26523;52.504;13.498;2023-03-31T04:36:11;9.90;99.90
40808;DHT22;26523;52.504;13.498;2023-03-31T04:38:42;9.90;99.90
40808;DHT22;26523;52.504;13.498;2023-03-31T04:41:14;9.80;99.90
40808;DHT22;26523;52.504;13.498;2023-03-31T04:43:40;9.80;99.90
40808;DHT22;26523;52.504;13.498;2023-03-31T04:46:06;9.80;99.90
40808;DHT22;26523;52.504;13.498;2023-03-31T04:48:31;9.80;99.90
40808;DHT22;26523;52.504;13.498;2023-03-31T04:50:57;9.70;99.90
40808;DHT22;26523;52.504;13.498;2023-03-31T04:53:23;9.80;99.90
40808;DHT22;26523;52.504;13.498;2023-03-31T04:55:49;9.80;99.90
40808;DHT22;26523;52.504;13.498;2023-03-31T04:58:14;9.70;99.90
40808;DHT22;26523;52.504;13.498;2023-03-31T05:00:40;9.80;99.90
40808;DHT22;26523;52.504;13.498;2023-03-31T05:03:06;9.80;99.90
40808;DHT22;26523;52.504;13.498;2023-03-31T05:05:32;9.80;99.90
40808;DHT22;26523;52.504;13.498;2023-03-31T05:07:58;9.80;99.90
40808;DHT22;26523;52.504;13.498;2023-03-31T05:10:24;9.80;99.90
40808;DHT22;26523;52.504;13.498;2023-03-31T05:12:49;9.80;99.90
40808;DHT22;26523;52.504;13.498;2023-03-31T05:15:15;9.80;99.90
40808;DHT22;26523;52.504;13.498;2023-03-31T05:17:41;9.80;99.90
40808;DHT22;26523;52.504;13.498;2023-03-31T05:20:07;9.90;99.90
40808;DHT22;26523;52.504;13.498;2023-03-31T05:22:35;9.90;99.90
40808;DHT22;26523;52.504;13.498;2023-03-31T05:25:02;9.90;99.90
40808;DHT22;26523;52.504;13.498;2023-03-31T05:27:28;10.00;99.90
40808;DHT22;26523;52.504;13.498;2023-03-31T05:29:54;9.90;99.90
40808;DHT22;26523;52.504;13.498;2023-03-31T05:32:20;10.00;99.90
40808;DHT22;26523;52.504;13.498;2023-03-31T05:34:46;10.00;99.90
40808;DHT22;26523;52.504;13.498;2023-03-31T05:37:12;10.00;99.90
40808;DHT22;26523;52.504;13.498;2023-03-31T05:39:37;10.00;99.90
40808;DHT22;26523;52.504;13.498;2023-03-31T05:42:03;10.10;99.90
40808;DHT22;26523;52.504;13.498;2023-03-31T05:44:30;10.20;99.90
40808;DHT22;26523;52.504;13.498;2023-03-31T05:46:56;10.20;99.90
40808;DHT22;26523;52.504;13.498;2023-03-31T05:49:21;10.20;99.90
40808;DHT22;26523;52.504;13.498;2023-03-31T05:51:47;10.30;99.90
40808;DHT22;26523;52.504;13.498;2023-03-31T05:54:13;10.30;99.90
40808;DHT22;26523;52.504;13.498;2023-03-31T05:56:39;10.50;99.90
40808;DHT22;26523;52.504;13.498;2023-03-31T05:59:05;10.60;99.90
40808;DHT22;26523;52.504;13.498;2023-03-31T06:01:30;10.80;99.90
40808;DHT22;26523;52.504;13.498;2023-03-31T06:03:56;11.00;99.90
40808;DHT22;26523;52.504;13.498;2023-03-31T06:06:22;11.20;99.90
40808;DHT22;26523;52.504;13.498;2023-03-31T06:08:49;11.50;99.90
40808;DHT22;26523;52.504;13.498;2023-03-31T06:11:20;11.70;99.90
40808;DHT22;26523;52.504;13.498;2023-03-31T06:13:47;11.80;99.90
40808;DHT22;26523;52.504;13.498;2023-03-31T06:16:14;11.80;99.90
40808;DHT22;26523;52.504;13.498;2023-03-31T06:18:41;11.80;99.90
40808;DHT22;26523;52.504;13.498;2023-03-31T06:21:09;11.70;99.90
40808;DHT22;26523;52.504;13.498;2023-03-31T06:23:36;11.60;99.90
40808;DHT22;26523;52.504;13.498;2023-03-31T06:26:05;11.60;99.90
40808;DHT22;26523;52.504;13.498;2023-03-31T06:28:33;11.70;99.90
40808;DHT22;26523;52.504;13.498;2023-03-31T06:31:10;11.90;99.90
40808;DHT22;26523;52.504;13.498;2023-03-31T06:33:38;12.10;99.90
40808;DHT22;26523;52.504;13.498;2023-03-31T06:36:05;12.30;99.90
40808;DHT22;26523;52.504;13.498;2023-03-31T06:38:35;12.40;99.90
40808;DHT22;26523;52.504;13.498;2023-03-31T06:41:01;12.40;99.90
40808;DHT22;26523;52.504;13.498;2023-03-31T06:43:27;12.40;99.90
40808;DHT22;26523;52.504;13.498;2023-03-31T06:45:54;12.40;99.90
40808;DHT22;26523;52.504;13.498;2023-03-31T06:48:21;12.30;99.90
40808;DHT22;26523;52.504;13.498;2023-03-31T06:50:47;12.30;99.90
40808;DHT22;26523;52.504;13.498;2023-03-31T06:53:12;12.20;99.90
40808;DHT22;26523;52.504;13.498;2023-03-31T06:55:38;12.20;99.90
40808;DHT22;26523;52.504;13.498;2023-03-31T06:58:05;12.30;99.90
40808;DHT22;26523;52.504;13.498;2023-03-31T07:00:31;12.40;99.90
40808;DHT22;26523;52.504;13.498;2023-03-31T07:02:57;12.50;99.90
40808;DHT22;26523;52.504;13.498;2023-03-31T07:05:23;12.50;99.90
40808;DHT22;26523;52.504;13.498;2023-03-31T07:07:58;12.60;99.90
40808;DHT22;26523;52.504;13.498;2023-03-31T07:10:25;12.60;99.90
40808;DHT22;26523;52.504;13.498;2023-03-31T07:12:51;12.70;99.90
40808;DHT22;26523;52.504;13.498;2023-03-31T07:15:17;12.90;99.90
40808;DHT22;26523;52.504;13.498;2023-03-31T07:17:43;13.20;99.90
40808;DHT22;26523;52.504;13.498;2023-03-31T07:20:13;13.60;99.90
40808;DHT22;26523;52.504;13.498;2023-03-31T07:22:43;13.90;99.90
40808;DHT22;26523;52.504;13.498;2023-03-31T07:25:11;14.10;99.90
40808;DHT22;26523;52.504;13.498;2023-03-31T07:27:37;14.40;99.90
40808;DHT22;26523;52.504;13.498;2023-03-31T07:30:07;14.70;99.90
40808;DHT22;26523;52.504;13.498;2023-03-31T07:32:33;15.10;99.90
40808;DHT22;26523;52.504;13.498;2023-03-31T07:34:59;16.40;99.90
40808;DHT22;26523;52.504;13.498;2023-03-31T07:37:26;17.50;99.90
40808;DHT22;26523;52.504;13.498;2023-03-31T07:39:58;18.10;99.90
40808;DHT22;26523;52.504;13.498;2023-03-31T07:42:24;18.30;99.90
40808;DHT22;26523;52.504;13.498;2023-03-31T07:44:50;18.30;99.90
40808;DHT22;26523;52.504;13.498;2023-03-31T07:47:19;18.40;99.90
40808;DHT22;26523;52.504;13.498;2023-03-31T07:49:45;18.20;99.90
40808;DHT22;26523;52.504;13.498;2023-03-31T07:52:12;18.60;99.90
40808;DHT22;26523;52.504;13.498;2023-03-31T07:54:38;18.40;99.90
40808;DHT22;26523;52.504;13.498;2023-03-31T07:57:07;18.90;99.90
40808;DHT22;26523;52.504;13.498;2023-03-31T07:59:33;20.00;99.90
40808;DHT22;26523;52.504;13.498;2023-03-31T08:02:02;20.80;99.90
40808;DHT22;26523;52.504;13.498;2023-03-31T08:04:28;21.90;99.50
40808;DHT22;26523;52.504;13.498;2023-03-31T08:06:57;22.00;98.10
40808;DHT22;26523;52.504;13.498;2023-03-31T08:09:22;21.80;97.10
40808;DHT22;26523;52.504;13.498;2023-03-31T08:11:48;21.50;97.80
40808;DHT22;26523;52.504;13.498;2023-03-31T08:14:17;21.20;97.50
40808;DHT22;26523;52.504;13.498;2023-03-31T08:16:49;20.90;98.20
40808;DHT22;26523;52.504;13.498;2023-03-31T08:19:26;20.50;98.30
40808;DHT22;26523;52.504;13.498;2023-03-31T08:21:53;19.90;98.80
40808;DHT22;26523;52.504;13.498;2023-03-31T08:24:21;19.50;99.70
40808;DHT22;26523;52.504;13.498;2023-03-31T08:26:46;19.10;99.90
40808;DHT22;26523;52.504;13.498;2023-03-31T08:29:13;18.90;99.90
40808;DHT22;26523;52.504;13.498;2023-03-31T08:31:38;18.80;99.90
40808;DHT22;26523;52.504;13.498;2023-03-31T08:34:04;18.70;99.90
40808;DHT22;26523;52.504;13.498;2023-03-31T08:36:31;18.50;99.90
40808;DHT22;26523;52.504;13.498;2023-03-31T08:38:58;18.70;99.90
40808;DHT22;26523;52.504;13.498;2023-03-31T08:44:34;19.50;99.90
40808;DHT22;26523;52.504;13.498;2023-03-31T08:47:01;19.50;99.90
40808;DHT22;26523;52.504;13.498;2023-03-31T08:49:40;19.60;99.90
40808;DHT22;26523;52.504;13.498;2023-03-31T08:52:11;19.50;99.90
40808;DHT22;26523;52.504;13.498;2023-03-31T08:54:50;19.00;99.90
40808;DHT22;26523;52.504;13.498;2023-03-31T08:57:42;18.80;99.90
40808;DHT22;26523;52.504;13.498;2023-03-31T09:00:17;18.60;99.90
40808;DHT22;26523;52.504;13.498;2023-03-31T09:02:58;18.50;99.90
40808;DHT22;26523;52.504;13.498;2023-03-31T09:16:23;17.00;99.90
40808;DHT22;26523;52.504;13.498;2023-03-31T09:18:53;16.80;99.90
40808;DHT22;26523;52.504;13.498;2023-03-31T09:21:42;16.70;99.90
40808;DHT22;26523;52.504;13.498;2023-03-31T09:26:57;16.50;99.90
40808;DHT22;26523;52.504;13.498;2023-03-31T09:31:55;16.60;99.90
40808;DHT22;26523;52.504;13.498;2023-03-31T09:34:27;17.10;99.90
40808;DHT22;26523;52.504;13.498;2023-03-31T09:36:53;17.40;99.90
40808;DHT22;26523;52.504;13.498;2023-03-31T09:39:19;17.60;99.90
40808;DHT22;26523;52.504;13.498;2023-03-31T09:41:47;17.60;99.90
40808;DHT22;26523;52.504;13.498;2023-03-31T09:47:05;17.30;99.90
40808;DHT22;26523;52.504;13.498;2023-03-31T09:49:36;17.20;99.90
40808;DHT22;26523;52.504;13.498;2023-03-31T09:52:11;17.10;99.90
40808;DHT22;26523;52.504;13.498;2023-03-31T09:54:49;16.90;99.90
40808;DHT22;26523;52.504;13.498;2023-03-31T09:57:28;16.60;99.90
40808;DHT22;26523;52.504;13.498;2023-03-31T10:00:03;16.30;99.90
40808;DHT22;26523;52.504;13.498;2023-03-31T10:04:58;16.00;99.90
40808;DHT22;26523;52.504;13.498;2023-03-31T10:07:24;16.00;99.90
40808;DHT22;26523;52.504;13.498;2023-03-31T10:09:53;16.40;99.90
40808;DHT22;26523;52.504;13.498;2023-03-31T10:12:23;16.60;99.90
40808;DHT22;26523;52.504;13.498;2023-03-31T10:14:51;16.80;99.90
40808;DHT22;26523;52.504;13.498;2023-03-31T10:17:19;16.90;99.90
40808;DHT22;26523;52.504;13.498;2023-03-31T10:19:51;16.70;99.90
40808;DHT22;26523;52.504;13.498;2023-03-31T10:24:50;16.70;99.90
40808;DHT22;26523;52.504;13.498;2023-03-31T10:27:27;16.40;99.90
40808;DHT22;26523;52.504;13.498;2023-03-31T10:30:00;16.00;99.90
40808;DHT22;26523;52.504;13.498;2023-03-31T10:32:27;15.70;99.90
40808;DHT22;26523;52.504;13.498;2023-03-31T10:34:55;15.40;99.90
40808;DHT22;26523;52.504;13.498;2023-03-31T10:37:24;15.20;99.90
40808;DHT22;26523;52.504;13.498;2023-03-31T10:39:59;15.40;99.90
40808;DHT22;26523;52.504;13.498;2023-03-31T10:42:26;15.70;99.90
40808;DHT22;26523;52.504;13.498;2023-03-31T10:47:49;15.90;99.90
40808;DHT22;26523;52.504;13.498;2023-03-31T10:50:17;16.00;99.90
40808;DHT22;26523;52.504;13.498;2023-03-31T10:52:45;16.00;99.90
40808;DHT22;26523;52.504;13.498;2023-03-31T10:55:13;16.00;99.90
40808;DHT22;26523;52.504;13.498;2023-03-31T10:57:49;16.00;99.90
40808;DHT22;26523;52.504;13.498;2023-03-31T11:00:31;15.90;99.90
40808;DHT22;26523;52.504;13.498;2023-03-31T11:06:16;15.80;99.90
40808;DHT22;26523;52.504;13.498;2023-03-31T11:08:55;15.60;99.90
40808;DHT22;26523;52.504;13.498;2023-03-31T11:11:35;15.20;99.90
40808;DHT22;26523;52.504;13.498;2023-03-31T11:17:16;14.80;99.90
40808;DHT22;26523;52.504;13.498;2023-03-31T11:22:31;14.60;99.90
40808;DHT22;26523;52.504;13.498;2023-03-31T11:25:14;14.50;99.90
40808;DHT22;26523;52.504;13.498;2023-03-31T11:41:40;16.30;99.90
40808;DHT22;26523;52.504;13.498;2023-03-31T11:44:12;16.70;99.90
40808;DHT22;26523;52.504;13.498;2023-03-31T11:46:43;16.80;99.90
40808;DHT22;26523;52.504;13.498;2023-03-31T11:49:18;17.00;99.90
40808;DHT22;26523;52.504;13.498;2023-03-31T11:52:05;17.10;99.90
40808;DHT22;26523;52.504;13.498;2023-03-31T11:54:41;17.30;99.90
40808;DHT22;26523;52.504;13.498;2023-03-31T12:02:53;16.90;99.90
40808;DHT22;26523;52.504;13.498;2023-03-31T12:05:23;16.70;99.90
40808;DHT22;26523;52.504;13.498;2023-03-31T12:08:03;16.60;99.90
40808;DHT22;26523;52.504;13.498;2023-03-31T12:10:40;16.50;99.90
40808;DHT22;26523;52.504;13.498;2023-03-31T12:15:43;16.20;99.90
40808;DHT22;26523;52.504;13.498;2023-03-31T12:18:17;16.20;99.90
40808;DHT22;26523;52.504;13.498;2023-03-31T12:20:56;16.30;99.90
40808;DHT22;26523;52.504;13.498;2023-03-31T12:23:29;16.10;99.90
40808;DHT22;26523;52.504;13.498;2023-03-31T12:26:01;16.10;99.90
40808;DHT22;26523;52.504;13.498;2023-03-31T12:28:33;16.10;99.90
40808;DHT22;26523;52.504;13.498;2023-03-31T12:31:03;16.20;99.90
40808;DHT22;26523;52.504;13.498;2023-03-31T12:33:44;16.00;99.90
40808;DHT22;26523;52.504;13.498;2023-03-31T12:42:24;16.00;99.90
40808;DHT22;26523;52.504;13.498;2023-03-31T12:48:03;15.50;99.90
40808;DHT22;26523;52.504;13.498;2023-03-31T12:53:23;14.80;99.90
40808;DHT22;26523;52.504;13.498;2023-03-31T12:55:56;14.60;99.90
40808;DHT22;26523;52.504;13.498;2023-03-31T13:01:07;14.30;99.90
40808;DHT22;26523;52.504;13.498;2023-03-31T13:06:00;14.20;99.90
40808;DHT22;26523;52.504;13.498;2023-03-31T13:08:49;14.10;99.90
40808;DHT22;26523;52.504;13.498;2023-03-31T13:11:15;13.90;99.90
40808;DHT22;26523;52.504;13.498;2023-03-31T13:13:58;13.90;99.90
40808;DHT22;26523;52.504;13.498;2023-03-31T13:16:24;13.90;99.90
40808;DHT22;26523;52.504;13.498;2023-03-31T13:18:53;13.80;99.90
40808;DHT22;26523;52.504;13.498;2023-03-31T13:21:19;13.80;99.90
40808;DHT22;26523;52.504;13.498;2023-03-31T13:23:45;13.70;99.90
40808;DHT22;26523;52.504;13.498;2023-03-31T13:34:41;13.70;99.90
40808;DHT22;26523;52.504;13.498;2023-03-31T13:46:37;12.80;99.90
40808;DHT22;26523;52.504;13.498;2023-03-31T13:51:57;12.50;99.90
40808;DHT22;26523;52.504;13.498;2023-03-31T13:54:44;12.40;99.90
40808;DHT22;26523;52.504;13.498;2023-03-31T14:05:35;12.20;99.90
40808;DHT22;26523;52.504;13.498;2023-03-31T14:08:22;12.20;99.90
40808;DHT22;26523;52.504;13.498;2023-03-31T14:10:50;12.30;99.90
40808;DHT22;26523;52.504;13.498;2023-03-31T14:13:18;12.30;99.90
40808;DHT22;26523;52.504;13.498;2023-03-31T14:15:56;12.20;99.90
40808;DHT22;26523;52.504;13.498;2023-03-31T14:18:28;12.10;99.90
40808;DHT22;26523;52.504;13.498;2023-03-31T14:26:34;11.90;99.90
40808;DHT22;26523;52.504;13.498;2023-03-31T14:34:33;11.60;99.90
40808;DHT22;26523;52.504;13.498;2023-03-31T14:37:12;11.50;99.90
40808;DHT22;26523;52.504;13.498;2023-03-31T14:39:48;11.60;99.90
40808;DHT22;26523;52.504;13.498;2023-03-31T14:42:20;11.50;99.90
40808;DHT22;26523;52.504;13.498;2023-03-31T14:44:47;11.50;99.90
40808;DHT22;26523;52.504;13.498;2023-03-31T14:47:15;11.50;99.90
40808;DHT22;26523;52.504;13.498;2023-03-31T14:49:41;11.50;99.90
40808;DHT22;26523;52.504;13.498;2023-03-31T14:52:28;11.40;99.90
40808;DHT22;26523;52.504;13.498;2023-03-31T14:54:54;11.40;99.90
40808;DHT22;26523;52.504;13.498;2023-03-31T14:57:26;11.40;99.90
40808;DHT22;26523;52.504;13.498;2023-03-31T14:59:53;11.40;99.90
40808;DHT22;26523;52.504;13.498;2023-03-31T15:02:36;11.40;99.90
40808;DHT22;26523;52.504;13.498;2023-03-31T15:05:07;11.30;99.90
40808;DHT22;26523;52.504;13.498;2023-03-31T15:07:35;11.30;99.90
40808;DHT22;26523;52.504;13.498;2023-03-31T15:10:02;11.30;99.90
40808;DHT22;26523;52.504;13.498;2023-03-31T15:12:28;11.30;99.90
40808;DHT22;26523;52.504;13.498;2023-03-31T15:15:00;11.40;99.90
40808;DHT22;26523;52.504;13.498;2023-03-31T15:17:30;11.40;99.90
40808;DHT22;26523;52.504;13.498;2023-03-31T15:19:59;11.40;99.90
40808;DHT22;26523;52.504;13.498;2023-03-31T15:22:27;11.40;99.90
40808;DHT22;26523;52.504;13.498;2023-03-31T15:24:53;11.40;99.90
40808;DHT22;26523;52.504;13.498;2023-03-31T15:27:35;11.40;99.90
40808;DHT22;26523;52.504;13.498;2023-03-31T15:30:05;11.40;99.90
40808;DHT22;26523;52.504;13.498;2023-03-31T15:32:35;11.40;99.90
40808;DHT22;26523;52.504;13.498;2023-03-31T15:35:02;11.30;99.90
40808;DHT22;26523;52.504;13.498;2023-03-31T15:37:55;11.40;99.90
40808;DHT22;26523;52.504;13.498;2023-03-31T15:40:47;11.40;99.90
40808;DHT22;26523;52.504;13.498;2023-03-31T15:45:50;11.30;99.90
40808;DHT22;26523;52.504;13.498;2023-03-31T15:48:26;11.30;99.90
40808;DHT22;26523;52.504;13.498;2023-03-31T15:50:59;11.20;99.90
40808;DHT22;26523;52.504;13.498;2023-03-31T15:53:28;11.30;99.90
40808;DHT22;26523;52.504;13.498;2023-03-31T15:55:57;11.30;99.90
40808;DHT22;26523;52.504;13.498;2023-03-31T15:58:46;11.20;99.90
40808;DHT22;26523;52.504;13.498;2023-03-31T16:01:13;11.20;99.90
40808;DHT22;26523;52.504;13.498;2023-03-31T16:03:40;11.20;99.90
40808;DHT22;26523;52.504;13.498;2023-03-31T16:08:41;11.00;99.90
40808;DHT22;26523;52.504;13.498;2023-03-31T16:11:14;11.10;99.90
40808;DHT22;26523;52.504;13.498;2023-03-31T16:13:45;11.00;99.90
40808;DHT22;26523;52.504;13.498;2023-03-31T16:16:16;11.00;99.90
40808;DHT22;26523;52.504;13.498;2023-03-31T16:18:46;11.00;99.90
40808;DHT22;26523;52.504;13.498;2023-03-31T16:21:20;11.00;99.90
40808;DHT22;26523;52.504;13.498;2023-03-31T16:23:49;11.00;99.90
40808;DHT22;26523;52.504;13.498;2023-03-31T16:26:22;11.00;99.90
40808;DHT22;26523;52.504;13.498;2023-03-31T16:28:49;11.00;99.90
40808;DHT22;26523;52.504;13.498;2023-03-31T16:31:37;11.00;99.90
40808;DHT22;26523;52.504;13.498;2023-03-31T16:34:07;11.00;99.90
40808;DHT22;26523;52.504;13.498;2023-03-31T16:36:33;11.00;99.90
40808;DHT22;26523;52.504;13.498;2023-03-31T16:38:59;11.00;99.90
40808;DHT22;26523;52.504;13.498;2023-03-31T16:41:28;11.00;99.90
40808;DHT22;26523;52.504;13.498;2023-03-31T16:43:54;11.10;99.90
40808;DHT22;26523;52.504;13.498;2023-03-31T16:46:21;11.00;99.90
40808;DHT22;26523;52.504;13.498;2023-03-31T16:48:47;11.00;99.90
40808;DHT22;26523;52.504;13.498;2023-03-31T16:51:12;10.90;99.90
40808;DHT22;26523;52.504;13.498;2023-03-31T16:53:38;10.90;99.90
40808;DHT22;26523;52.504;13.498;2023-03-31T16:56:05;10.90;99.90
40808;DHT22;26523;52.504;13.498;2023-03-31T16:58:35;10.80;99.90
40808;DHT22;26523;52.504;13.498;2023-03-31T17:01:02;10.80;99.90
40808;DHT22;26523;52.504;13.498;2023-03-31T17:03:29;10.80;99.90
40808;DHT22;26523;52.504;13.498;2023-03-31T17:05:56;10.80;99.90
40808;DHT22;26523;52.504;13.498;2023-03-31T17:08:24;10.80;99.90
40808;DHT22;26523;52.504;13.498;2023-03-31T17:10:52;10.70;99.90
40808;DHT22;26523;52.504;13.498;2023-03-31T17:13:18;10.70;99.90
40808;DHT22;26523;52.504;13.498;2023-03-31T17:15:44;10.60;99.90
40808;DHT22;26523;52.504;13.498;2023-03-31T17:18:10;10.50;99.90
40808;DHT22;26523;52.504;13.498;2023-03-31T17:20:36;10.50;99.90
40808;DHT22;26523;52.504;13.498;2023-03-31T17:23:02;10.40;99.90
40808;DHT22;26523;52.504;13.498;2023-03-31T17:25:28;10.40;99.90
40808;DHT22;26523;52.504;13.498;2023-03-31T17:27:54;10.40;99.90
40808;DHT22;26523;52.504;13.498;2023-03-31T17:30:21;10.30;99.90
40808;DHT22;26523;52.504;13.498;2023-03-31T17:32:47;10.30;99.90
40808;DHT22;26523;52.504;13.498;2023-03-31T17:35:13;10.20;99.90
40808;DHT22;26523;52.504;13.498;2023-03-31T17:37:46;10.20;99.90
40808;DHT22;26523;52.504;13.498;2023-03-31T17:40:14;10.20;99.90
40808;DHT22;26523;52.504;13.498;2023-03-31T17:42:39;10.20;99.90
40808;DHT22;26523;52.504;13.498;2023-03-31T17:45:06;10.20;99.90
40808;DHT22;26523;52.504;13.498;2023-03-31T17:47:33;10.20;99.90
40808;DHT22;26523;52.504;13.498;2023-03-31T17:49:58;10.20;99.90
40808;DHT22;26523;52.504;13.498;2023-03-31T17:52:24;10.20;99.90
40808;DHT22;26523;52.504;13.498;2023-03-31T17:54:50;10.20;99.90
40808;DHT22;26523;52.504;13.498;2023-03-31T17:57:15;10.20;99.90
40808;DHT22;26523;52.504;13.498;2023-03-31T17:59:41;10.30;99.90
40808;DHT22;26523;52.504;13.498;2023-03-31T18:02:11;10.20;99.90
40808;DHT22;26523;52.504;13.498;2023-03-31T18:04:37;10.20;99.90
40808;DHT22;26523;52.504;13.498;2023-03-31T18:07:03;10.20;99.90
40808;DHT22;26523;52.504;13.498;2023-03-31T18:09:29;10.20;99.90
40808;DHT22;26523;52.504;13.498;2023-03-31T18:11:55;10.10;99.90
40808;DHT22;26523;52.504;13.498;2023-03-31T18:14:22;10.10;99.90
40808;DHT22;26523;52.504;13.498;2023-03-31T18:16:48;10.10;99.90
40808;DHT22;26523;52.504;13.498;2023-03-31T18:19:14;10.20;99.90
40808;DHT22;26523;52.504;13.498;2023-03-31T18:21:40;10.20;99.90
40808;DHT22;26523;52.504;13.498;2023-03-31T18:24:05;10.20;99.90
40808;DHT22;26523;52.504;13.498;2023-03-31T18:26:31;10.20;99.90